Time;durP1;ratioP1;P1;durP2;ratioP2;P2;SDS_P1;SDS_P2;PMS_P1;PMS_P2;Temp;Humidity;BMP_temperature;BMP_pressure;BME280_temperature;BME280_humidity;BME280_pressure;Samples;Min_cycle;Max_cycle;Signal;HPM_P1;HPM_P2
2022/08/13 00:00:14;;;;;;;13.65;7.68;;;;;;;;;;5034095;28;20026;-82
2022/08/13 00:02:43;;;;;;;11.88;7.63;;;;;;;;;;5007439;28;20025;-84
2022/08/13 00:05:09;;;;;;;9.27;7.00;;;;;;;;;;5023416;28;20385;-82
2022/08/13 00:07:35;;;;;;;9.43;7.45;;;;;;;;;;5026459;28;20032;-82
2022/08/13 00:10:01;;;;;;;9.07;7.45;;;;;;;;;;5037482;28;20120;-82
2022/08/13 00:15:16;;;;;;;11.15;6.97;;;;;;;;;;5024408;28;20047;-82
2022/08/13 00:17:42;;;;;;;9.68;7.45;;;;;;;;;;5020978;28;20046;-81
2022/08/13 00:20:08;;;;;;;10.75;7.25;;;;;;;;;;5037189;28;20037;-82
2022/08/13 00:22:34;;;;;;;13.75;7.80;;;;;;;;;;5036583;28;20029;-82
2022/08/13 00:25:00;;;;;;;10.00;7.75;;;;;;;;;;5020957;28;20052;-82
2022/08/13 00:27:26;;;;;;;12.63;7.63;;;;;;;;;;5036480;28;20021;-82
2022/08/13 00:29:54;;;;;;;11.13;7.78;;;;;;;;;;5037384;28;20033;-81
2022/08/13 00:32:21;;;;;;;12.68;8.05;;;;;;;;;;5036630;28;20032;-82
2022/08/13 00:34:49;;;;;;;13.38;8.43;;;;;;;;;;5038677;28;20124;-82
2022/08/13 00:37:14;;;;;;;11.27;8.77;;;;;;;;;;5037872;28;20041;-82
2022/08/13 00:39:40;;;;;;;16.90;9.50;;;;;;;;;;5043209;28;20033;-81
2022/08/13 00:42:05;;;;;;;13.07;8.80;;;;;;;;;;5046630;28;20127;-82
2022/08/13 00:44:31;;;;;;;14.35;9.45;;;;;;;;;;5045029;28;20245;-82
2022/08/13 00:49:41;;;;;;;11.38;9.05;;;;;;;;;;5043545;28;20041;-82
2022/08/13 00:52:09;;;;;;;13.15;8.95;;;;;;;;;;5042498;28;20024;-81
2022/08/13 00:54:40;;;;;;;13.38;9.35;;;;;;;;;;5038695;28;20440;-82
2022/08/13 00:57:06;;;;;;;20.27;9.25;;;;;;;;;;5042429;28;20052;-81
2022/08/13 00:59:32;;;;;;;13.68;9.40;;;;;;;;;;5043737;28;20051;-82
2022/08/13 01:01:58;;;;;;;13.20;8.85;;;;;;;;;;5043816;28;20026;-82
2022/08/13 01:04:23;;;;;;;13.48;8.40;;;;;;;;;;5047897;28;20040;-81
2022/08/13 01:06:48;;;;;;;11.93;8.25;;;;;;;;;;5042581;28;20112;-82
2022/08/13 01:09:14;;;;;;;12.10;8.48;;;;;;;;;;5015344;28;20472;-81
2022/08/13 01:11:39;;;;;;;14.07;8.85;;;;;;;;;;5044050;28;20033;-81
2022/08/13 01:14:07;;;;;;;13.20;9.15;;;;;;;;;;5043131;28;20041;-82
2022/08/13 01:16:36;;;;;;;13.65;9.27;;;;;;;;;;5047852;28;20086;-82
2022/08/13 01:19:09;;;;;;;16.58;9.45;;;;;;;;;;5035297;28;20495;-81
2022/08/13 01:21:42;;;;;;;12.63;9.07;;;;;;;;;;5026053;28;20084;-81
2022/08/13 01:24:10;;;;;;;10.98;8.30;;;;;;;;;;5037461;28;20112;-82
2022/08/13 01:26:35;;;;;;;11.38;8.30;;;;;;;;;;5034704;28;20017;-81
2022/08/13 01:29:04;;;;;;;12.10;7.88;;;;;;;;;;5035222;28;20408;-82
2022/08/13 01:31:30;;;;;;;12.90;7.75;;;;;;;;;;5034940;28;20044;-81
2022/08/13 01:33:59;;;;;;;11.55;7.60;;;;;;;;;;5035302;28;20042;-81
2022/08/13 01:36:25;;;;;;;11.93;7.38;;;;;;;;;;5037403;28;20033;-81
2022/08/13 01:38:50;;;;;;;10.38;7.38;;;;;;;;;;5036219;28;20044;-80
2022/08/13 01:41:16;;;;;;;11.13;7.72;;;;;;;;;;5037752;28;20041;-82
2022/08/13 01:43:42;;;;;;;10.52;7.18;;;;;;;;;;5036215;28;20083;-81
2022/08/13 01:46:08;;;;;;;10.93;8.00;;;;;;;;;;5036512;28;20028;-80
2022/08/13 01:51:21;;;;;;;11.57;7.50;;;;;;;;;;5026014;28;20045;-82
2022/08/13 01:53:51;;;;;;;10.20;7.18;;;;;;;;;;5047210;28;20029;-81
2022/08/13 01:56:20;;;;;;;12.15;7.70;;;;;;;;;;5044618;28;20044;-82
2022/08/13 01:58:47;;;;;;;11.55;7.40;;;;;;;;;;5039752;28;20443;-82
2022/08/13 02:01:13;;;;;;;12.80;7.20;;;;;;;;;;5039397;28;20025;-82
2022/08/13 02:03:43;;;;;;;12.07;7.22;;;;;;;;;;5040230;28;20022;-82
2022/08/13 02:06:08;;;;;;;15.05;7.60;;;;;;;;;;5039644;28;20041;-82
2022/08/13 02:08:36;;;;;;;11.90;7.18;;;;;;;;;;5038794;28;20017;-81
2022/08/13 02:11:02;;;;;;;11.55;7.47;;;;;;;;;;5039947;28;20536;-81
2022/08/13 02:13:29;;;;;;;15.80;7.40;;;;;;;;;;5041701;28;20029;-82
2022/08/13 02:15:55;;;;;;;11.05;6.80;;;;;;;;;;5043281;28;20037;-83
2022/08/13 02:18:22;;;;;;;10.18;7.47;;;;;;;;;;5026816;28;20053;-81
2022/08/13 02:20:49;;;;;;;10.40;7.20;;;;;;;;;;5038117;28;20029;-81
2022/08/13 02:23:16;;;;;;;13.18;7.68;;;;;;;;;;5039745;28;20036;-80
2022/08/13 02:25:41;;;;;;;11.85;7.80;;;;;;;;;;5039799;28;20037;-83
2022/08/13 02:28:10;;;;;;;11.57;7.32;;;;;;;;;;5011626;28;20053;-82
2022/08/13 02:30:35;;;;;;;14.27;7.07;;;;;;;;;;5027031;28;20040;-83
2022/08/13 02:33:03;;;;;;;11.38;7.30;;;;;;;;;;5036473;28;20029;-83
2022/08/13 02:35:29;;;;;;;11.25;7.45;;;;;;;;;;5030406;28;20037;-82
2022/08/13 02:37:55;;;;;;;12.57;7.53;;;;;;;;;;5049895;28;20435;-82
2022/08/13 02:43:05;;;;;;;17.17;7.90;;;;;;;;;;5034606;28;20037;-82
2022/08/13 02:45:31;;;;;;;16.52;7.93;;;;;;;;;;5044843;28;20048;-82
2022/08/13 02:47:57;;;;;;;11.65;7.93;;;;;;;;;;5028087;28;20042;-82
2022/08/13 02:50:24;;;;;;;13.60;8.00;;;;;;;;;;5008520;28;20468;-83
2022/08/13 02:52:51;;;;;;;10.27;7.38;;;;;;;;;;5038034;28;20049;-82
2022/08/13 02:55:20;;;;;;;11.82;7.65;;;;;;;;;;5008980;28;20036;-82
2022/08/13 02:57:46;;;;;;;13.80;8.10;;;;;;;;;;5039040;28;20044;-81
2022/08/13 03:00:12;;;;;;;12.27;8.05;;;;;;;;;;5024415;28;20456;-82
2022/08/13 03:02:38;;;;;;;13.18;7.43;;;;;;;;;;5039003;28;20044;-82
2022/08/13 03:05:04;;;;;;;11.38;8.25;;;;;;;;;;5022338;28;20040;-82
2022/08/13 03:07:30;;;;;;;13.52;7.65;;;;;;;;;;5022453;28;20488;-82
2022/08/13 03:09:55;;;;;;;13.95;7.20;;;;;;;;;;5042255;28;20033;-81
2022/08/13 03:12:21;;;;;;;13.38;7.72;;;;;;;;;;5039321;28;20452;-84
2022/08/13 03:14:46;;;;;;;10.55;6.72;;;;;;;;;;5045796;28;20025;-82
2022/08/13 03:17:12;;;;;;;10.77;6.88;;;;;;;;;;5021949;28;20045;-82
2022/08/13 03:19:37;;;;;;;10.15;6.38;;;;;;;;;;5037656;28;20389;-82
2022/08/13 03:22:02;;;;;;;10.27;6.15;;;;;;;;;;5039454;28;20056;-81
2022/08/13 03:24:28;;;;;;;11.02;6.40;;;;;;;;;;5007402;28;20025;-80
2022/08/13 03:26:54;;;;;;;14.63;6.82;;;;;;;;;;5020877;28;20091;-83
2022/08/13 03:29:19;;;;;;;10.90;6.78;;;;;;;;;;5036485;28;20056;-82
2022/08/13 03:31:46;;;;;;;11.23;7.03;;;;;;;;;;5039451;28;20053;-82
2022/08/13 03:34:11;;;;;;;10.20;6.60;;;;;;;;;;5038136;28;20135;-82
2022/08/13 03:36:37;;;;;;;11.07;6.43;;;;;;;;;;5021905;28;20068;-83
2022/08/13 03:39:03;;;;;;;15.65;6.97;;;;;;;;;;5022199;28;20031;-83
2022/08/13 03:41:28;;;;;;;14.30;7.85;;;;;;;;;;5018993;28;20026;-83
2022/08/13 03:43:54;;;;;;;13.93;8.32;;;;;;;;;;5020050;28;20013;-82
2022/08/13 03:46:20;;;;;;;15.43;8.45;;;;;;;;;;5038373;28;20045;-81
2022/08/13 03:48:47;;;;;;;17.10;8.23;;;;;;;;;;5054652;28;20029;-81
2022/08/13 03:51:12;;;;;;;16.67;9.70;;;;;;;;;;5024614;28;20168;-81
2022/08/13 03:53:38;;;;;;;13.65;8.60;;;;;;;;;;5006122;28;20053;-82
2022/08/13 03:56:04;;;;;;;19.13;9.43;;;;;;;;;;5050494;28;20468;-83
2022/08/13 03:58:30;;;;;;;17.20;9.38;;;;;;;;;;5021622;28;20036;-84
2022/08/13 04:00:56;;;;;;;16.73;9.32;;;;;;;;;;5038740;28;20511;-83
2022/08/13 04:03:22;;;;;;;12.70;8.30;;;;;;;;;;5021510;28;20045;-83
2022/08/13 04:05:50;;;;;;;14.20;7.93;;;;;;;;;;5039198;28;20076;-83
2022/08/13 04:08:16;;;;;;;13.02;7.88;;;;;;;;;;5038787;28;20138;-83
2022/08/13 04:10:42;;;;;;;13.75;8.15;;;;;;;;;;5038700;28;20033;-82
2022/08/13 04:13:12;;;;;;;13.32;8.10;;;;;;;;;;5000286;28;20106;-83
2022/08/13 04:15:37;;;;;;;14.23;8.13;;;;;;;;;;5037339;28;20411;-82
2022/08/13 04:18:03;;;;;;;14.63;7.80;;;;;;;;;;5038651;28;20037;-83
2022/08/13 04:20:30;;;;;;;11.48;7.25;;;;;;;;;;5021834;28;20400;-83
2022/08/13 04:22:56;;;;;;;9.82;7.45;;;;;;;;;;5026222;28;20035;-84
2022/08/13 04:25:23;;;;;;;11.98;6.82;;;;;;;;;;5044828;28;20041;-84
2022/08/13 04:27:49;;;;;;;14.00;7.85;;;;;;;;;;5048427;28;20057;-83
2022/08/13 04:30:16;;;;;;;13.30;7.40;;;;;;;;;;5021542;28;20105;-82
2022/08/13 04:32:43;;;;;;;11.60;6.65;;;;;;;;;;5008853;28;20049;-82
2022/08/13 04:35:09;;;;;;;10.65;7.78;;;;;;;;;;5048930;28;20040;-82
2022/08/13 04:37:35;;;;;;;14.07;8.30;;;;;;;;;;5040390;28;20025;-83
2022/08/13 04:40:01;;;;;;;14.90;7.55;;;;;;;;;;5040202;28;20044;-84
2022/08/13 04:42:26;;;;;;;14.02;7.38;;;;;;;;;;5024984;28;20029;-82
2022/08/13 04:44:52;;;;;;;11.75;6.93;;;;;;;;;;5028907;28;20037;-82
2022/08/13 04:47:18;;;;;;;13.18;7.82;;;;;;;;;;5037668;28;20080;-83
2022/08/13 04:49:47;;;;;;;14.68;8.25;;;;;;;;;;5009767;28;20045;-82
2022/08/13 04:52:13;;;;;;;13.13;7.60;;;;;;;;;;5012188;28;20044;-82
2022/08/13 04:54:39;;;;;;;13.77;7.75;;;;;;;;;;5019281;28;20037;-83
2022/08/13 04:57:04;;;;;;;11.73;7.43;;;;;;;;;;5048577;28;20029;-84
2022/08/13 04:59:30;;;;;;;14.02;8.15;;;;;;;;;;5046528;28;20068;-84
2022/08/13 05:01:55;;;;;;;16.02;7.60;;;;;;;;;;5016061;28;20016;-82
2022/08/13 05:04:21;;;;;;;15.40;8.00;;;;;;;;;;5024956;28;20026;-83
2022/08/13 05:06:46;;;;;;;13.45;7.57;;;;;;;;;;5011462;28;20447;-82
2022/08/13 05:09:12;;;;;;;14.07;8.18;;;;;;;;;;5043065;28;20080;-82
2022/08/13 05:11:38;;;;;;;14.07;7.78;;;;;;;;;;5036412;28;20037;-81
2022/08/13 05:14:04;;;;;;;14.95;8.07;;;;;;;;;;5014084;28;20131;-81
2022/08/13 05:16:30;;;;;;;14.55;7.72;;;;;;;;;;5042018;28;20029;-81
2022/08/13 05:18:56;;;;;;;15.27;8.23;;;;;;;;;;5027304;28;20118;-81
2022/08/13 05:21:22;;;;;;;13.65;7.65;;;;;;;;;;5027780;28;20116;-84
2022/08/13 05:23:50;;;;;;;14.43;7.50;;;;;;;;;;5039975;28;20065;-82
2022/08/13 05:26:16;;;;;;;13.80;7.47;;;;;;;;;;5040280;28;20045;-83
2022/08/13 05:28:42;;;;;;;14.05;6.80;;;;;;;;;;5040429;28;20068;-81
2022/08/13 05:31:09;;;;;;;12.60;6.07;;;;;;;;;;5015159;28;20404;-79
2022/08/13 05:33:35;;;;;;;15.25;6.60;;;;;;;;;;5027381;28;20046;-79
2022/08/13 05:36:01;;;;;;;13.55;6.03;;;;;;;;;;5025024;28;20018;-78
2022/08/13 05:38:27;;;;;;;13.40;5.78;;;;;;;;;;5036199;28;20049;-79
2022/08/13 05:40:54;;;;;;;10.23;5.13;;;;;;;;;;5048687;28;20159;-81
2022/08/13 05:43:20;;;;;;;13.93;5.20;;;;;;;;;;5003418;28;20025;-78
2022/08/13 05:45:49;;;;;;;6.57;4.93;;;;;;;;;;5021263;28;20018;-78
2022/08/13 05:48:16;;;;;;;10.18;4.47;;;;;;;;;;5037296;28;20047;-78
2022/08/13 05:50:42;;;;;;;8.25;4.43;;;;;;;;;;5017244;28;20041;-79
2022/08/13 05:53:09;;;;;;;9.85;4.40;;;;;;;;;;5013161;28;20046;-76
2022/08/13 05:55:35;;;;;;;8.38;3.90;;;;;;;;;;5031906;28;20487;-77
2022/08/13 05:58:01;;;;;;;6.68;4.22;;;;;;;;;;5033028;28;20392;-77
2022/08/13 06:03:24;;;;;;;6.22;4.20;;;;;;;;;;5033453;28;20036;-78
2022/08/13 06:05:57;;;;;;;8.90;4.57;;;;;;;;;;5033023;28;20029;-77
2022/08/13 06:08:28;;;;;;;7.30;5.43;;;;;;;;;;5032209;28;20084;-76
2022/08/13 06:10:54;;;;;;;5.72;3.92;;;;;;;;;;5034997;28;20068;-79
2022/08/13 06:13:20;;;;;;;6.35;3.50;;;;;;;;;;5037278;28;20037;-77
2022/08/13 06:15:49;;;;;;;10.77;5.68;;;;;;;;;;5038957;28;20099;-77
2022/08/13 06:18:15;;;;;;;8.73;5.55;;;;;;;;;;5039725;28;20037;-77
2022/08/13 06:20:42;;;;;;;6.82;3.83;;;;;;;;;;5042336;28;20408;-77
2022/08/13 06:23:11;;;;;;;7.72;3.90;;;;;;;;;;5039492;28;20022;-78
2022/08/13 06:25:37;;;;;;;6.32;3.33;;;;;;;;;;5039987;28;20041;-83
2022/08/13 06:28:03;;;;;;;5.53;3.85;;;;;;;;;;5035318;28;20489;-80
2022/08/13 06:30:30;;;;;;;7.00;3.35;;;;;;;;;;5034449;28;20069;-78
2022/08/13 06:33:02;;;;;;;6.22;3.63;;;;;;;;;;5048630;28;20026;-80
2022/08/13 06:35:28;;;;;;;8.35;4.05;;;;;;;;;;5044509;28;20045;-79
2022/08/13 06:37:54;;;;;;;9.70;4.00;;;;;;;;;;5044363;28;20468;-81
2022/08/13 06:40:23;;;;;;;9.07;3.80;;;;;;;;;;5028123;28;20036;-78
2022/08/13 06:42:48;;;;;;;6.07;3.80;;;;;;;;;;5050258;28;20024;-78
2022/08/13 06:45:14;;;;;;;6.20;3.80;;;;;;;;;;5035515;28;20025;-84
2022/08/13 06:47:39;;;;;;;7.13;3.45;;;;;;;;;;5016353;28;20391;-79
2022/08/13 06:50:10;;;;;;;7.03;3.67;;;;;;;;;;5047039;28;20495;-80
2022/08/13 06:52:35;;;;;;;7.63;3.63;;;;;;;;;;5051817;28;20107;-82
2022/08/13 06:55:01;;;;;;;6.00;3.63;;;;;;;;;;5048139;28;20034;-79
2022/08/13 06:57:26;;;;;;;6.35;3.58;;;;;;;;;;5049370;28;20024;-79
2022/08/13 06:59:54;;;;;;;7.25;3.75;;;;;;;;;;5045052;28;20389;-81
2022/08/13 07:02:21;;;;;;;7.50;3.75;;;;;;;;;;5033754;28;20052;-81
2022/08/13 07:04:47;;;;;;;7.95;4.15;;;;;;;;;;5045416;28;20037;-78
2022/08/13 07:07:16;;;;;;;6.85;3.88;;;;;;;;;;5050680;28;20017;-78
2022/08/13 07:09:44;;;;;;;6.40;3.80;;;;;;;;;;5045084;28;20045;-80
2022/08/13 07:12:10;;;;;;;7.60;3.85;;;;;;;;;;5048606;28;20107;-78
2022/08/13 07:14:35;;;;;;;5.38;4.35;;;;;;;;;;5044480;28;20611;-81
2022/08/13 07:17:01;;;;;;;9.10;3.78;;;;;;;;;;5048929;28;20151;-79
2022/08/13 07:19:27;;;;;;;6.93;3.45;;;;;;;;;;5027213;28;20071;-80
2022/08/13 07:21:52;;;;;;;8.05;3.47;;;;;;;;;;5048511;28;20021;-82
2022/08/13 07:24:18;;;;;;;6.25;3.25;;;;;;;;;;5044928;28;20033;-80
2022/08/13 07:26:43;;;;;;;7.22;3.30;;;;;;;;;;5031914;28;20025;-79
2022/08/13 07:29:09;;;;;;;9.88;3.40;;;;;;;;;;5026213;28;20135;-80
2022/08/13 07:31:39;;;;;;;7.75;4.43;;;;;;;;;;5047121;28;20044;-79
2022/08/13 07:34:05;;;;;;;5.55;3.25;;;;;;;;;;5028125;28;20036;-79
2022/08/13 07:36:36;;;;;;;5.45;3.28;;;;;;;;;;5008392;28;20479;-81
2022/08/13 07:39:05;;;;;;;8.30;3.90;;;;;;;;;;5019343;28;20065;-79
2022/08/13 07:41:31;;;;;;;4.93;3.42;;;;;;;;;;5035090;28;20032;-79
2022/08/13 07:43:57;;;;;;;6.22;3.65;;;;;;;;;;5037404;28;20034;-79
2022/08/13 07:46:22;;;;;;;6.55;3.70;;;;;;;;;;5034976;28;20036;-79
2022/08/13 07:48:51;;;;;;;7.32;4.63;;;;;;;;;;5037065;28;20090;-80
2022/08/13 07:51:20;;;;;;;10.45;7.90;;;;;;;;;;5014283;28;20038;-78
2022/08/13 07:53:53;;;;;;;8.43;5.10;;;;;;;;;;5036885;28;20459;-79
2022/08/13 07:56:19;;;;;;;7.47;4.30;;;;;;;;;;5032086;28;20501;-79
2022/08/13 07:58:45;;;;;;;8.02;3.63;;;;;;;;;;5031990;28;20020;-80
2022/08/13 08:01:11;;;;;;;6.40;3.15;;;;;;;;;;5011871;28;20040;-83
2022/08/13 08:03:42;;;;;;;7.93;4.03;;;;;;;;;;5025257;28;20033;-80
2022/08/13 08:06:09;;;;;;;6.25;3.65;;;;;;;;;;5024750;28;20488;-79
2022/08/13 08:08:34;;;;;;;7.00;4.25;;;;;;;;;;5043882;28;20020;-79
2022/08/13 08:11:01;;;;;;;7.95;3.90;;;;;;;;;;5031706;28;20036;-79
2022/08/13 08:13:26;;;;;;;4.97;3.05;;;;;;;;;;5019231;28;20102;-81
2022/08/13 08:15:52;;;;;;;6.25;3.60;;;;;;;;;;5045608;28;20060;-80
2022/08/13 08:18:18;;;;;;;9.82;8.60;;;;;;;;;;5031115;28;20025;-80
2022/08/13 08:20:44;;;;;;;7.07;3.92;;;;;;;;;;5025408;28;20478;-79
2022/08/13 08:23:10;;;;;;;3.38;3.00;;;;;;;;;;5047604;28;20021;-78
2022/08/13 08:25:35;;;;;;;7.28;3.35;;;;;;;;;;5045562;28;20054;-77
2022/08/13 08:28:01;;;;;;;6.13;4.95;;;;;;;;;;5043535;28;20053;-80
2022/08/13 08:30:26;;;;;;;4.80;3.35;;;;;;;;;;5040821;28;20040;-79
2022/08/13 08:32:56;;;;;;;7.75;4.80;;;;;;;;;;5043492;28;20507;-80
2022/08/13 08:35:22;;;;;;;5.47;3.70;;;;;;;;;;5050104;28;20041;-80
2022/08/13 08:43:22;;;;;;;4.57;3.00;;;;;;;;;;5042204;28;20087;-80
2022/08/13 08:45:48;;;;;;;8.88;2.95;;;;;;;;;;5041954;28;20430;-82
2022/08/13 08:48:15;;;;;;;5.93;2.78;;;;;;;;;;5041348;28;20143;-81
2022/08/13 08:50:41;;;;;;;6.18;4.20;;;;;;;;;;5047017;28;20025;-81
2022/08/13 08:53:22;;;;;;;7.95;3.55;;;;;;;;;;5048956;28;20052;-78
2022/08/13 08:55:48;;;;;;;7.40;3.80;;;;;;;;;;5045539;28;20025;-78
2022/08/13 08:58:13;;;;;;;6.72;3.50;;;;;;;;;;5046022;28;20086;-80
2022/08/13 09:00:39;;;;;;;9.15;4.70;;;;;;;;;;5048941;28;20040;-81
2022/08/13 09:03:05;;;;;;;6.03;3.38;;;;;;;;;;5034372;28;20435;-79
2022/08/13 09:05:30;;;;;;;6.80;3.50;;;;;;;;;;5047232;28;20491;-80
2022/08/13 09:07:57;;;;;;;6.28;3.80;;;;;;;;;;5043760;28;20849;-80
2022/08/13 09:10:22;;;;;;;8.73;3.55;;;;;;;;;;5030963;28;20503;-80
2022/08/13 09:12:50;;;;;;;6.97;3.63;;;;;;;;;;5041657;28;20041;-80
2022/08/13 09:15:21;;;;;;;7.90;3.80;;;;;;;;;;5023369;28;20026;-82
2022/08/13 09:17:46;;;;;;;7.53;4.10;;;;;;;;;;5031166;28;20033;-79
2022/08/13 09:20:13;;;;;;;10.25;4.75;;;;;;;;;;5015481;28;20329;-80
2022/08/13 09:22:40;;;;;;;5.70;3.75;;;;;;;;;;5032272;28;20411;-79
2022/08/13 09:25:05;;;;;;;5.38;3.67;;;;;;;;;;5033639;28;20464;-79
2022/08/13 09:27:31;;;;;;;4.85;3.17;;;;;;;;;;5033080;28;20063;-81
2022/08/13 09:29:58;;;;;;;8.35;2.90;;;;;;;;;;5035931;28;20056;-80
2022/08/13 09:32:24;;;;;;;4.80;2.90;;;;;;;;;;5038133;28;20034;-81
2022/08/13 09:34:50;;;;;;;4.40;2.92;;;;;;;;;;5008986;28;20035;-81
2022/08/13 09:37:15;;;;;;;7.07;3.67;;;;;;;;;;5039058;28;20396;-81
2022/08/13 09:39:52;;;;;;;8.25;3.53;;;;;;;;;;5028447;28;20044;-82
2022/08/13 09:42:24;;;;;;;5.93;2.85;;;;;;;;;;5031827;28;20064;-81
2022/08/13 09:44:58;;;;;;;6.80;3.30;;;;;;;;;;5039993;28;20036;-81
2022/08/13 09:47:24;;;;;;;6.00;2.97;;;;;;;;;;5037400;28;20040;-82
2022/08/13 09:49:50;;;;;;;5.30;2.95;;;;;;;;;;5025249;28;20033;-80
2022/08/13 09:52:16;;;;;;;5.53;3.10;;;;;;;;;;5034077;28;20033;-84
2022/08/13 09:54:42;;;;;;;5.55;2.90;;;;;;;;;;5016890;28;20086;-82
2022/08/13 09:57:08;;;;;;;5.82;2.60;;;;;;;;;;4998263;28;20034;-80
2022/08/13 09:59:34;;;;;;;6.60;2.72;;;;;;;;;;5031894;28;20029;-81
2022/08/13 10:02:05;;;;;;;4.15;2.83;;;;;;;;;;5033305;28;20030;-81
2022/08/13 10:04:32;;;;;;;6.05;3.10;;;;;;;;;;5018132;28;20055;-80
2022/08/13 10:06:58;;;;;;;5.07;3.10;;;;;;;;;;5037618;28;20032;-83
2022/08/13 10:09:26;;;;;;;5.43;3.05;;;;;;;;;;5033034;28;20152;-83
2022/08/13 10:11:52;;;;;;;6.07;2.90;;;;;;;;;;5018645;28;20033;-80
2022/08/13 10:14:18;;;;;;;3.92;2.83;;;;;;;;;;5019008;28;20037;-80
2022/08/13 10:16:43;;;;;;;4.85;3.05;;;;;;;;;;5035110;28;20083;-81
2022/08/13 10:19:09;;;;;;;3.80;2.88;;;;;;;;;;5035620;28;20562;-81
2022/08/13 10:21:35;;;;;;;4.13;2.78;;;;;;;;;;5035314;28;20435;-81
2022/08/13 10:24:01;;;;;;;5.32;2.45;;;;;;;;;;5035582;28;20043;-80
2022/08/13 10:26:26;;;;;;;3.70;2.42;;;;;;;;;;5045374;28;20060;-80
2022/08/13 10:28:51;;;;;;;3.53;2.40;;;;;;;;;;5053019;28;20075;-82
2022/08/13 10:31:17;;;;;;;4.97;2.70;;;;;;;;;;5048732;28;20033;-82
2022/08/13 10:33:43;;;;;;;5.13;2.30;;;;;;;;;;5004401;28;20033;-81
2022/08/13 10:36:09;;;;;;;5.18;2.60;;;;;;;;;;5013275;28;20029;-81
2022/08/13 10:38:34;;;;;;;5.53;3.10;;;;;;;;;;5037341;28;20123;-81
2022/08/13 10:41:00;;;;;;;5.20;2.40;;;;;;;;;;5035432;28;20056;-80
2022/08/13 10:43:26;;;;;;;6.72;2.80;;;;;;;;;;5037075;28;20086;-80
2022/08/13 10:45:53;;;;;;;7.40;2.60;;;;;;;;;;5037164;28;20033;-84
2022/08/13 10:48:19;;;;;;;4.47;2.70;;;;;;;;;;5039957;28;20047;-82
2022/08/13 10:50:44;;;;;;;4.22;2.70;;;;;;;;;;4999441;28;20116;-81
2022/08/13 10:53:55;;;;;;;5.40;2.65;;;;;;;;;;5043162;28;20056;-84
2022/08/13 10:55:55;;;;;;;4.43;2.60;;;;;;;;;;5036026;28;20136;-82
2022/08/13 10:58:20;;;;;;;6.15;2.83;;;;;;;;;;5038475;28;20542;-82
2022/08/13 11:00:46;;;;;;;4.40;2.72;;;;;;;;;;5038853;28;20120;-81
2022/08/13 11:03:15;;;;;;;5.70;2.15;;;;;;;;;;5021183;28;20018;-82
2022/08/13 11:05:41;;;;;;;5.07;2.65;;;;;;;;;;5017993;28;20061;-81
2022/08/13 11:08:06;;;;;;;4.13;2.50;;;;;;;;;;5040035;28;20036;-80
2022/08/13 11:10:32;;;;;;;4.25;3.03;;;;;;;;;;5021296;28;20399;-82
2022/08/13 11:12:57;;;;;;;4.85;2.80;;;;;;;;;;5021012;28;20111;-82
2022/08/13 11:15:23;;;;;;;5.03;2.53;;;;;;;;;;5018465;28;20044;-82
2022/08/13 11:17:53;;;;;;;4.88;3.10;;;;;;;;;;5034247;28;20033;-83
2022/08/13 11:20:19;;;;;;;17.10;6.50;;;;;;;;;;5034522;28;20438;-82
2022/08/13 11:22:55;;;;;;;18.25;6.40;;;;;;;;;;5034875;28;20076;-81
2022/08/13 11:25:20;;;;;;;24.35;8.02;;;;;;;;;;5035769;28;20048;-83
2022/08/13 11:27:46;;;;;;;39.42;14.60;;;;;;;;;;5035047;28;20057;-83
2022/08/13 11:30:12;;;;;;;24.23;8.00;;;;;;;;;;5019416;28;20033;-81
2022/08/13 11:32:38;;;;;;;38.80;12.57;;;;;;;;;;5035214;28;20029;-81
2022/08/13 11:35:04;;;;;;;36.30;13.27;;;;;;;;;;5036346;28;20064;-82
2022/08/13 11:37:30;;;;;;;52.08;17.70;;;;;;;;;;5033473;28;20484;-82
2022/08/13 11:39:55;;;;;;;7.22;3.47;;;;;;;;;;5034863;28;20107;-82
2022/08/13 11:42:21;;;;;;;27.08;10.50;;;;;;;;;;5017746;28;20025;-82
2022/08/13 11:44:46;;;;;;;7.25;3.28;;;;;;;;;;5039531;28;20040;-81
2022/08/13 11:47:12;;;;;;;16.25;6.10;;;;;;;;;;5040502;28;20048;-81
2022/08/13 11:49:37;;;;;;;14.38;6.53;;;;;;;;;;5041292;28;20072;-81
2022/08/13 11:52:03;;;;;;;10.23;5.15;;;;;;;;;;5034883;28;20435;-81
2022/08/13 11:54:29;;;;;;;8.30;3.00;;;;;;;;;;5029824;28;20041;-80
2022/08/13 11:56:54;;;;;;;10.52;4.13;;;;;;;;;;5029780;28;20028;-81
2022/08/13 11:59:19;;;;;;;10.52;4.50;;;;;;;;;;5047602;28;20037;-81
2022/08/13 12:01:45;;;;;;;8.82;2.83;;;;;;;;;;5026665;28;20014;-80
2022/08/13 12:04:12;;;;;;;8.80;4.47;;;;;;;;;;5040788;28;20451;-83
2022/08/13 12:06:38;;;;;;;9.15;3.38;;;;;;;;;;5044675;28;20113;-82
2022/08/13 12:09:03;;;;;;;8.60;3.95;;;;;;;;;;5039075;28;20527;-82
2022/08/13 12:11:30;;;;;;;9.02;2.65;;;;;;;;;;5008562;28;20446;-81
2022/08/13 12:13:56;;;;;;;8.57;2.40;;;;;;;;;;5043484;28;20045;-82
2022/08/13 12:16:21;;;;;;;6.88;2.92;;;;;;;;;;5042020;28;20029;-82
2022/08/13 12:18:47;;;;;;;7.57;3.08;;;;;;;;;;5042037;28;20549;-81
2022/08/13 12:21:12;;;;;;;6.50;2.95;;;;;;;;;;5047178;28;20029;-81
2022/08/13 12:23:38;;;;;;;6.80;2.90;;;;;;;;;;5012004;28;20033;-81
2022/08/13 12:26:03;;;;;;;6.28;2.92;;;;;;;;;;5043434;28;20021;-81
2022/08/13 12:28:29;;;;;;;6.00;2.58;;;;;;;;;;5043184;28;20056;-81
2022/08/13 12:30:54;;;;;;;5.55;2.75;;;;;;;;;;5029094;28;20437;-83
2022/08/13 12:33:20;;;;;;;7.00;2.80;;;;;;;;;;5042782;28;20041;-81
2022/08/13 12:35:45;;;;;;;5.72;2.45;;;;;;;;;;5028477;28;20031;-84
2022/08/13 12:38:12;;;;;;;5.20;2.22;;;;;;;;;;5026741;28;20056;-82
2022/08/13 12:40:37;;;;;;;3.22;2.10;;;;;;;;;;5043645;28;20463;-82
2022/08/13 12:43:03;;;;;;;5.28;2.58;;;;;;;;;;5037826;28;20045;-80
2022/08/13 12:45:28;;;;;;;6.55;2.40;;;;;;;;;;5028433;28;20107;-80
2022/08/13 12:47:54;;;;;;;4.60;2.20;;;;;;;;;;5040474;28;20029;-81
2022/08/13 12:50:19;;;;;;;4.53;2.50;;;;;;;;;;5025393;28;20095;-82
2022/08/13 12:52:45;;;;;;;5.38;2.33;;;;;;;;;;5045489;28;20427;-82
2022/08/13 12:55:10;;;;;;;5.60;2.13;;;;;;;;;;5025441;28;20025;-81
2022/08/13 12:57:36;;;;;;;6.68;2.30;;;;;;;;;;5044891;28;20095;-82
2022/08/13 13:00:03;;;;;;;2.92;2.08;;;;;;;;;;5013705;28;20029;-81
2022/08/13 13:02:29;;;;;;;4.85;2.20;;;;;;;;;;5030038;28;20029;-83
2022/08/13 13:04:55;;;;;;;7.47;3.28;;;;;;;;;;5047158;28;20101;-81
2022/08/13 13:07:20;;;;;;;3.90;2.28;;;;;;;;;;5041294;28;20106;-81
2022/08/13 13:09:46;;;;;;;7.63;2.55;;;;;;;;;;5043564;28;20030;-82
2022/08/13 13:12:11;;;;;;;4.07;2.08;;;;;;;;;;5031495;28;20037;-81
2022/08/13 13:14:37;;;;;;;3.28;1.85;;;;;;;;;;5036589;28;20029;-81
2022/08/13 13:17:02;;;;;;;3.90;2.10;;;;;;;;;;5067383;28;20124;-81
2022/08/13 13:19:27;;;;;;;4.53;2.35;;;;;;;;;;5044733;28;20033;-82
2022/08/13 13:21:53;;;;;;;4.22;2.63;;;;;;;;;;5045068;28;20503;-83
2022/08/13 13:24:19;;;;;;;6.28;2.20;;;;;;;;;;5047575;28;20471;-82
2022/08/13 13:26:48;;;;;;;3.40;2.20;;;;;;;;;;5026498;28;20459;-81
2022/08/13 13:29:14;;;;;;;5.63;2.10;;;;;;;;;;5041136;28;20049;-82
2022/08/13 13:31:39;;;;;;;3.55;1.92;;;;;;;;;;5040881;28;20036;-82
2022/08/13 13:34:05;;;;;;;5.47;2.17;;;;;;;;;;5028562;28;20028;-83
2022/08/13 13:36:30;;;;;;;5.40;2.35;;;;;;;;;;5025391;28;20091;-82
2022/08/13 13:38:56;;;;;;;5.28;2.10;;;;;;;;;;5046192;28;20475;-80
2022/08/13 13:41:22;;;;;;;5.45;2.60;;;;;;;;;;5043629;28;20040;-82
2022/08/13 13:43:47;;;;;;;6.28;2.38;;;;;;;;;;5026050;28;20475;-81
2022/08/13 13:46:13;;;;;;;4.00;2.40;;;;;;;;;;5045438;28;20061;-82
2022/08/13 13:48:40;;;;;;;3.20;2.30;;;;;;;;;;5044523;28;20033;-84
2022/08/13 13:51:12;;;;;;;4.25;2.30;;;;;;;;;;5032032;28;20038;-83
2022/08/13 13:53:41;;;;;;;4.75;2.38;;;;;;;;;;5015292;28;20060;-83
2022/08/13 13:56:08;;;;;;;3.85;2.20;;;;;;;;;;5046770;28;20060;-83
2022/08/13 13:58:34;;;;;;;4.03;2.58;;;;;;;;;;5016312;28;20056;-80
2022/08/13 14:01:01;;;;;;;4.68;2.15;;;;;;;;;;5031817;28;20018;-81
2022/08/13 14:03:29;;;;;;;4.45;2.20;;;;;;;;;;5045792;28;20037;-82
2022/08/13 14:05:55;;;;;;;3.67;2.28;;;;;;;;;;5029259;28;20021;-83
2022/08/13 14:08:21;;;;;;;3.42;2.47;;;;;;;;;;5046520;28;20036;-83
2022/08/13 14:10:47;;;;;;;3.92;2.60;;;;;;;;;;5054160;28;20467;-82
2022/08/13 14:13:13;;;;;;;5.55;2.38;;;;;;;;;;5036888;28;20033;-82
2022/08/13 14:15:38;;;;;;;3.92;2.78;;;;;;;;;;5042727;28;20030;-80
2022/08/13 14:18:06;;;;;;;6.03;2.60;;;;;;;;;;5033197;28;20032;-81
2022/08/13 14:20:33;;;;;;;3.45;2.40;;;;;;;;;;5043453;28;20045;-82
2022/08/13 14:22:58;;;;;;;4.35;2.40;;;;;;;;;;5022744;28;20456;-83
2022/08/13 14:25:24;;;;;;;3.53;2.10;;;;;;;;;;5034287;28;20009;-82
2022/08/13 14:27:49;;;;;;;5.13;2.30;;;;;;;;;;5033797;28;20041;-82
2022/08/13 14:30:15;;;;;;;5.93;2.40;;;;;;;;;;5052026;28;20041;-83
2022/08/13 14:32:40;;;;;;;5.40;2.72;;;;;;;;;;5044101;28;20040;-83
2022/08/13 14:35:07;;;;;;;5.20;3.00;;;;;;;;;;5054001;28;20033;-80
2022/08/13 14:37:33;;;;;;;5.55;2.70;;;;;;;;;;5036222;28;20118;-81
2022/08/13 14:39:59;;;;;;;4.60;2.50;;;;;;;;;;5039044;28;20033;-82
2022/08/13 14:42:32;;;;;;;5.10;2.53;;;;;;;;;;5020975;28;20484;-82
2022/08/13 14:47:51;;;;;;;6.45;2.30;;;;;;;;;;5028744;28;20037;-81
2022/08/13 14:50:16;;;;;;;3.85;2.50;;;;;;;;;;4995988;28;20041;-81
2022/08/13 14:52:42;;;;;;;5.03;2.60;;;;;;;;;;5028874;28;20036;-81
2022/08/13 14:55:08;;;;;;;3.70;2.45;;;;;;;;;;5019956;28;20472;-84